createdAt,value
2022-12-23T00:03:46.456Z,84.52
2022-12-23T00:08:45.165Z,85.17
2022-12-23T00:13:45.174Z,86.24
2022-12-23T00:18:45.111Z,85.58
2022-12-23T00:23:45.043Z,85.58
2022-12-23T00:28:44.891Z,85.79
2022-12-23T00:33:45.735Z,86.81
2022-12-23T00:38:44.761Z,86.81
2022-12-23T00:43:47.972Z,86.88
2022-12-23T00:50:01.885Z,86.67
2022-12-23T00:56:19.346Z,84.99
2022-12-23T01:01:19.191Z,87.08
2022-12-23T01:06:19.250Z,86.77
2022-12-23T01:18:29.935Z,86.88
2022-12-23T01:23:29.621Z,86.88
2022-12-23T01:28:29.809Z,87.12
2022-12-23T01:33:29.561Z,87.22
2022-12-23T02:38:52.220Z,86.85
2022-12-23T02:43:52.115Z,86.65
2022-12-23T02:48:52.305Z,86.85
2022-12-23T02:53:51.884Z,86.85
2022-12-23T02:58:51.875Z,85.99
2022-12-23T03:03:51.882Z,86.34
2022-12-23T03:08:51.776Z,86.20
2022-12-23T03:13:51.833Z,85.28
2022-12-23T03:18:51.702Z,85.38
2022-12-23T03:23:55.533Z,85.48
2022-12-23T03:28:54.511Z,85.79
2022-12-23T03:33:51.374Z,87.16
2022-12-23T03:38:51.586Z,85.64
2022-12-23T03:43:51.468Z,85.55
2022-12-23T03:48:56.557Z,85.99
2022-12-23T04:22:49.377Z,86.58
2022-12-23T04:27:49.110Z,85.46
2022-12-23T04:32:49.328Z,84.29
2022-12-23T04:37:49.090Z,83.47
2022-12-23T04:47:02.300Z,85.44
2022-12-23T04:52:02.082Z,85.74
2022-12-23T04:57:01.961Z,86.15
2022-12-23T05:02:01.661Z,86.93
2022-12-23T05:09:39.517Z,84.44
2022-12-23T05:27:17.746Z,86.63
2022-12-23T05:32:17.681Z,84.70
2022-12-23T05:37:17.553Z,84.11
2022-12-23T05:52:08.369Z,82.64
2022-12-23T05:57:07.832Z,81.27
2022-12-23T06:09:47.965Z,85.52
2022-12-23T06:14:47.073Z,85.42
2022-12-23T06:19:47.106Z,85.11
2022-12-23T06:24:46.948Z,84.83
2022-12-23T06:29:46.873Z,84.87
2022-12-23T06:34:48.255Z,84.56
2022-12-23T06:39:46.946Z,82.95
2022-12-23T06:44:46.680Z,83.91
2022-12-23T06:49:47.964Z,84.01
2022-12-23T06:54:46.493Z,84.11
2022-12-23T06:59:49.737Z,84.11
2022-12-23T07:04:46.521Z,85.58
2022-12-23T07:09:46.210Z,83.56
2022-12-23T07:16:04.248Z,81.74
2022-12-23T07:21:03.660Z,82.67
2022-12-23T07:26:03.606Z,83.22
2022-12-23T07:31:03.541Z,82.36
2022-12-23T07:36:03.624Z,82.46
2022-12-23T07:47:14.441Z,81.16
2022-12-23T07:53:31.847Z,78.67
2022-12-23T08:00:15.966Z,78.91
2022-12-23T08:05:15.821Z,81.26
2022-12-23T08:10:15.603Z,80.07
2022-12-23T08:15:15.510Z,80.69
2022-12-23T08:20:15.477Z,81.20
2022-12-23T08:25:15.307Z,80.14
2022-12-23T08:30:15.346Z,79.49
2022-12-23T08:35:16.778Z,79.86
2022-12-23T08:40:15.287Z,78.50
2022-12-23T08:45:15.067Z,79.14
2022-12-23T08:50:18.115Z,79.11
2022-12-23T08:55:14.952Z,79.45
2022-12-23T09:00:14.965Z,78.22
2022-12-23T09:05:14.794Z,77.61
2022-12-23T09:10:14.878Z,76.04
2022-12-23T09:15:14.829Z,76.45
2022-12-23T09:20:14.985Z,76.79
2022-12-23T09:25:14.595Z,77.00
2022-12-23T09:30:14.734Z,76.45
2022-12-23T09:35:14.630Z,75.95
2022-12-23T09:40:24.242Z,74.89
2022-12-23T09:45:14.288Z,74.89
2022-12-23T09:50:17.290Z,75.95
2022-12-23T09:55:14.386Z,76.69
2022-12-23T10:00:23.312Z,73.57
2022-12-23T10:07:05.012Z,74.01
2022-12-23T10:12:04.856Z,74.85
2022-12-23T10:19:30.437Z,73.87
2022-12-23T10:26:09.834Z,73.87
2022-12-23T10:31:39.896Z,74.08
2022-12-23T10:36:10.599Z,73.97
2022-12-23T10:41:09.966Z,74.69
2022-12-23T10:48:14.232Z,73.13
2022-12-23T11:01:37.879Z,73.47
2022-12-23T11:06:37.947Z,72.52
2022-12-23T11:11:37.268Z,72.52
2022-12-23T11:16:37.293Z,71.47
2022-12-23T11:21:37.314Z,70.92
2022-12-23T11:26:37.036Z,72.45
2022-12-23T11:31:37.099Z,71.12
2022-12-23T11:36:36.969Z,71.12
2022-12-23T11:41:36.886Z,72.75
2022-12-23T11:46:37.012Z,69.54
2022-12-23T11:51:41.354Z,71.60
2022-12-23T11:56:36.732Z,71.12
2022-12-23T12:01:36.720Z,69.84
2022-12-23T12:06:36.470Z,69.87
2022-12-23T12:11:36.460Z,69.95
2022-12-23T12:16:36.389Z,70.59
2022-12-23T12:21:36.351Z,70.82
2022-12-23T12:26:36.196Z,69.98
2022-12-23T12:31:37.706Z,71.23
2022-12-23T12:36:36.132Z,70.75
2022-12-23T12:41:36.133Z,69.78
2022-12-23T12:46:36.916Z,71.67
2022-12-23T12:51:38.861Z,71.06
2022-12-23T12:56:36.747Z,73.57
2022-12-23T13:01:36.163Z,70.86
2022-12-23T13:06:36.666Z,71.57
2022-12-23T13:11:36.056Z,72.52
2022-12-23T13:16:36.441Z,71.26
2022-12-23T13:21:36.569Z,72.21
2022-12-23T13:26:35.424Z,69.37
2022-12-23T13:31:35.546Z,71.30
2022-12-23T13:36:35.281Z,73.77
2022-12-23T13:41:36.474Z,73.06
2022-12-23T13:46:35.225Z,73.60
2022-12-23T13:51:38.104Z,74.58
2022-12-23T13:56:35.041Z,75.03
2022-12-23T14:01:35.069Z,75.44
2022-12-23T14:06:34.929Z,75.71
2022-12-23T14:11:35.140Z,76.12
2022-12-23T14:16:34.812Z,75.64
2022-12-23T14:21:34.710Z,76.09
2022-12-23T14:26:34.681Z,77.21
2022-12-23T14:31:34.762Z,75.95
2022-12-23T14:36:34.606Z,77.25
2022-12-23T14:41:34.476Z,77.96
2022-12-23T14:46:34.537Z,77.55
2022-12-23T14:51:37.490Z,77.65
2022-12-23T14:56:34.375Z,78.30
2022-12-23T15:01:34.287Z,78.41
2022-12-23T15:06:34.133Z,77.25
2022-12-23T15:11:34.381Z,78.00
2022-12-23T15:16:34.066Z,78.41
2022-12-23T15:21:34.034Z,78.77
2022-12-23T15:26:33.951Z,78.00
2022-12-23T15:31:33.838Z,77.75
2022-12-23T15:36:33.854Z,77.45
2022-12-23T15:41:33.776Z,78.61
2022-12-23T15:46:33.975Z,81.20
2022-12-23T15:52:05.954Z,82.26
2022-12-23T15:56:34.760Z,85.30
2022-12-23T16:01:33.707Z,83.48
2022-12-23T16:06:33.431Z,84.91
2022-12-23T16:11:33.356Z,84.55
2022-12-23T16:18:23.435Z,83.83
2022-12-23T16:29:23.567Z,87.02
2022-12-23T16:43:00.252Z,87.94
2022-12-23T16:47:59.221Z,88.18
2022-12-23T16:52:59.014Z,88.18
2022-12-23T16:57:58.763Z,87.38
2022-12-23T17:02:58.691Z,86.12
2022-12-23T17:07:58.878Z,87.08
2022-12-23T17:13:16.619Z,87.14
2022-12-23T17:23:37.770Z,88.51
2022-12-23T17:29:54.930Z,88.41
2022-12-23T17:55:35.306Z,87.45
2022-12-23T20:50:50.317Z,87.96
2022-12-23T20:55:49.711Z,87.59
2022-12-23T21:00:54.120Z,88.24
2022-12-23T22:51:39.719Z,78.94
2022-12-23T22:56:38.465Z,78.80
2022-12-23T23:01:38.524Z,78.53
2022-12-23T23:09:09.917Z,79.04
2022-12-23T23:14:09.572Z,78.84
2022-12-23T23:19:17.710Z,77.37
2022-12-23T23:26:11.771Z,77.85
2022-12-23T23:36:12.279Z,76.73
2022-12-23T23:41:11.178Z,76.93
2022-12-23T23:46:11.245Z,76.62
2022-12-23T23:51:10.890Z,77.24
2022-12-23T23:56:11.529Z,75.67
